F/V Cote D'ambre — FPEY — position and weather

sailwx.info

Track history (hours):
 
Tides and Currents Weather Stations Pressure Air Temp Water Temp Dewpoint Dewpoint Depression Visibility Wind Speed Wind Dir Waves Ship Positions

F/V Cote D'ambre

Last reported at 2014-Aug-23 02:25 UTC. Time now 2014-Aug-23 03:36 UTC.
Position N 47°33' W 003°22'.

Length 16 m; draft 4 m.

Type: Fishing. MMSI: 227128800.

Date/timePositionNaut miles runAvg speedWind from/ knotsBaromVisibWave heightAir tempDewpointWater temp
2014-Aug-23 02:25N 47°33' W 003°22'7 8.4
2014-Aug-23 01:33N 47°40' W 003°22'3 3.3
2014-Aug-23 00:33N 47°44' W 003°22'2 1.9
2014-Aug-22 23:33N 47°42' W 003°22'8 8.0
2014-Aug-22 22:33N 47°34' W 003°22'3 0.1
2014-Aug-22 03:21N 47°36' W 003°24'6 7.0
2014-Aug-22 02:33N 47°42' W 003°22'2 1.9
2014-Aug-22 01:31N 47°44' W 003°22'0 0.2
2014-Aug-22 00:32N 47°44' W 003°22'5 5.4
2014-Aug-21 23:33N 47°39' W 003°22'9 8.5
2014-Aug-21 22:33N 47°30' W 003°19'4 0.1
2014-Aug-20 04:34N 47°26' W 003°19'9 8.8
2014-Aug-20 03:33N 47°35' W 003°21'9 8.4
2014-Aug-20 02:31N 47°44' W 003°22'0 0.0
2014-Aug-20 01:31N 47°44' W 003°22'6 6.0
2014-Aug-20 00:33N 47°38' W 003°22'8 8.3
2014-Aug-19 23:33N 47°30' W 003°22'8 7.9
2014-Aug-19 22:32N 47°22' W 003°23'  
2014-Aug-16 03:22N 47°44' W 003°22'0 0.2
2014-Aug-16 02:32N 47°44' W 003°22'0 0.0
2014-Aug-16 01:32N 47°44' W 003°22'3 2.9
2014-Aug-16 00:33N 47°41' W 003°22'8 8.4
2014-Aug-15 23:33N 47°33' W 003°23'8 7.9
2014-Aug-15 22:33N 47°25' W 003°25'4 0.1
2014-Aug-14 04:33N 47°29' W 003°23'8 8.5
2014-Aug-14 03:33N 47°37' W 003°22'7 6.5
2014-Aug-14 02:34N 47°44' W 003°22'0 0.2
2014-Aug-14 01:33N 47°44' W 003°22'1 1.0
2014-Aug-14 00:33N 47°43' W 003°22'8 8.5
2014-Aug-13 23:33N 47°34' W 003°22'8 8.2
2014-Aug-13 22:33N 47°26' W 003°23'  
Track history (hours):
 
Tides and Currents Weather Stations Pressure Air Temp Water Temp Dewpoint Dewpoint Depression Visibility Wind Speed Wind Dir Waves Ship Positions

F/V Cote D'ambre

Last reported at 2014-Aug-23 02:25 UTC. Time now 2014-Aug-23 03:36 UTC.
Position N 47°33' W 003°22'.

Length 16 m; draft 4 m.

Type: Fishing. MMSI: 227128800.

Date/timePositionNaut miles runAvg speedWind from/ knotsBaromVisibWave heightAir tempDewpointWater temp
2014-Aug-23 02:25N 47°33' W 003°22'7 8.4
2014-Aug-23 01:33N 47°40' W 003°22'3 3.3
2014-Aug-23 00:33N 47°44' W 003°22'2 1.9
2014-Aug-22 23:33N 47°42' W 003°22'8 8.0
2014-Aug-22 22:33N 47°34' W 003°22'3 0.1
2014-Aug-22 03:21N 47°36' W 003°24'6 7.0
2014-Aug-22 02:33N 47°42' W 003°22'2 1.9
2014-Aug-22 01:31N 47°44' W 003°22'0 0.2
2014-Aug-22 00:32N 47°44' W 003°22'5 5.4
2014-Aug-21 23:33N 47°39' W 003°22'9 8.5
2014-Aug-21 22:33N 47°30' W 003°19'4 0.1
2014-Aug-20 04:34N 47°26' W 003°19'9 8.8
2014-Aug-20 03:33N 47°35' W 003°21'9 8.4
2014-Aug-20 02:31N 47°44' W 003°22'0 0.0
2014-Aug-20 01:31N 47°44' W 003°22'6 6.0
2014-Aug-20 00:33N 47°38' W 003°22'8 8.3
2014-Aug-19 23:33N 47°30' W 003°22'8 7.9
2014-Aug-19 22:32N 47°22' W 003°23'  
2014-Aug-16 03:22N 47°44' W 003°22'0 0.2
2014-Aug-16 02:32N 47°44' W 003°22'0 0.0
2014-Aug-16 01:32N 47°44' W 003°22'3 2.9
2014-Aug-16 00:33N 47°41' W 003°22'8 8.4
2014-Aug-15 23:33N 47°33' W 003°23'8 7.9
2014-Aug-15 22:33N 47°25' W 003°25'4 0.1
2014-Aug-14 04:33N 47°29' W 003°23'8 8.5
2014-Aug-14 03:33N 47°37' W 003°22'7 6.5
2014-Aug-14 02:34N 47°44' W 003°22'0 0.2
2014-Aug-14 01:33N 47°44' W 003°22'1 1.0
2014-Aug-14 00:33N 47°43' W 003°22'8 8.5
2014-Aug-13 23:33N 47°34' W 003°22'8 8.2
2014-Aug-13 22:33N 47°26' W 003°23'  

Dump ship's entire track history